createdAt,value
2022-11-18T00:01:36.740Z,94537.09
2022-11-18T00:04:03.359Z,94536.25
2022-11-18T00:06:30.488Z,94540.13
2022-11-18T00:08:59.013Z,94535.75
2022-11-18T00:11:45.237Z,94543.78
2022-11-18T00:14:23.440Z,94546.47
2022-11-18T00:16:59.537Z,94540.28
2022-11-18T00:19:28.543Z,94534.94
2022-11-18T00:21:55.708Z,94542.13
2022-11-18T00:24:22.888Z,94534.63
2022-11-18T00:26:49.883Z,94534.44
2022-11-18T00:29:17.050Z,94536.28
2022-11-18T00:31:44.439Z,94523.75
2022-11-18T00:34:13.179Z,94532.78
2022-11-18T00:36:40.517Z,94523.09
2022-11-18T00:39:07.226Z,94524.13
2022-11-18T00:41:52.449Z,94516.41
2022-11-18T00:44:18.979Z,94527.78
2022-11-18T00:46:45.492Z,94524.13
2022-11-18T00:49:12.139Z,94512.75
2022-11-18T00:51:40.059Z,94512.75
2022-11-18T00:54:06.788Z,94506.56
2022-11-18T00:56:33.937Z,94502.41
2022-11-18T00:59:00.632Z,94490.06
2022-11-18T01:01:27.352Z,94498.06
2022-11-18T01:03:54.113Z,94495.56
2022-11-18T01:06:20.707Z,94498.06
2022-11-18T01:08:47.361Z,94492.06
2022-11-18T01:11:32.920Z,94486.72
2022-11-18T01:13:59.542Z,94494.75
2022-11-18T01:16:27.729Z,94497.41
2022-11-18T01:18:54.616Z,94501.06
2022-11-18T01:21:21.549Z,94501.91
2022-11-18T01:23:48.951Z,94496.91
2022-11-18T01:26:16.494Z,94491.38
2022-11-18T01:28:43.819Z,94486.88
2022-11-18T01:31:13.760Z,94487.88
2022-11-18T01:33:40.357Z,94493.22
2022-11-18T01:36:27.635Z,94492.41
2022-11-18T01:38:55.126Z,94494.41
2022-11-18T01:41:23.883Z,94489.88
2022-11-18T01:43:51.364Z,94489.88
2022-11-18T01:46:17.926Z,94485.56
2022-11-18T01:48:45.338Z,94483.06
2022-11-18T01:51:17.058Z,94489.41
2022-11-18T01:53:53.725Z,94482.41
2022-11-18T01:56:28.514Z,94481.38
2022-11-18T01:59:03.784Z,94477.06
2022-11-18T02:01:30.446Z,94480.56
2022-11-18T02:03:57.174Z,94473.06
2022-11-18T02:06:24.405Z,94486.06
2022-11-18T02:08:51.384Z,94480.88
2022-11-18T02:11:36.781Z,94473.88
2022-11-18T02:14:05.941Z,94471.38
2022-11-18T02:17:13.453Z,94475.72
2022-11-18T02:20:07.453Z,94473.06
2022-11-18T02:22:54.150Z,94473.22
2022-11-18T02:25:31.897Z,94467.06
2022-11-18T02:28:15.009Z,94468.72
2022-11-18T02:30:50.305Z,94467.06
2022-11-18T02:33:25.339Z,94468.06
2022-11-18T02:35:52.768Z,94466.41
2022-11-18T02:38:29.828Z,94466.03
2022-11-18T02:41:03.270Z,94466.19
2022-11-18T02:43:36.682Z,94465.38
2022-11-18T02:46:07.455Z,94464.56
2022-11-18T02:48:40.301Z,94455.72
2022-11-18T02:51:08.481Z,94462.03
2022-11-18T02:53:36.465Z,94468.41
2022-11-18T02:56:04.041Z,94467.56
2022-11-18T02:58:30.641Z,94465.03
2022-11-18T03:00:59.928Z,94463.22
2022-11-18T03:03:32.495Z,94468.75
2022-11-18T03:06:08.512Z,94462.56
2022-11-18T03:08:59.454Z,94463.41
2022-11-18T04:41:55.650Z,94522.56
2022-11-18T04:44:25.863Z,94526.38
2022-11-18T04:46:52.904Z,94527.53
2022-11-18T04:49:19.996Z,94526.66
2022-11-18T04:51:47.086Z,94526.28
2022-11-18T04:54:14.456Z,94534.56
2022-11-18T04:56:45.809Z,94533.34
2022-11-18T04:59:17.848Z,94529.59
2022-11-18T05:01:44.579Z,94539.91
2022-11-18T05:04:17.476Z,94535.34
2022-11-18T05:06:44.412Z,94536.13
2022-11-18T05:09:11.306Z,94536.44
2022-11-18T05:11:56.466Z,94542.72
2022-11-18T05:14:27.298Z,94537.50
2022-11-18T05:16:54.928Z,94543.97
2022-11-18T05:19:21.595Z,94540.75
2022-11-18T05:21:48.229Z,94542.03
2022-11-18T05:24:15.038Z,94545.84
2022-11-18T05:26:41.645Z,94543.81
2022-11-18T05:29:08.192Z,94544.13
2022-11-18T05:31:34.794Z,94547.94
2022-11-18T05:34:01.368Z,94544.88
2022-11-18T05:36:28.134Z,94539.00
2022-11-18T05:38:54.954Z,94544.00
2022-11-18T05:41:40.161Z,94533.72
2022-11-18T05:44:06.979Z,94536.06
2022-11-18T05:46:33.521Z,94547.06
2022-11-18T05:49:00.424Z,94547.69
2022-11-18T05:51:26.962Z,94547.34
2022-11-18T05:53:54.946Z,94548.34
2022-11-18T05:56:30.555Z,94542.63
2022-11-18T05:58:57.309Z,94555.66
2022-11-18T06:01:37.393Z,94558.97
2022-11-18T06:04:09.079Z,94565.66
2022-11-18T06:06:36.513Z,94567.16
2022-11-18T06:09:05.693Z,94581.19
2022-11-18T06:11:38.259Z,94579.16
2022-11-18T06:14:12.080Z,94585.19
2022-11-18T06:16:41.096Z,94584.19
2022-11-18T06:19:08.095Z,94586.00
2022-11-18T06:21:35.356Z,94585.81
2022-11-18T06:24:02.672Z,94589.34
2022-11-18T06:26:29.665Z,94598.22
2022-11-18T09:45:59.655Z,94784.25
2022-11-18T09:48:46.840Z,94794.59
2022-11-18T09:51:13.886Z,94806.97
2022-11-18T09:53:44.997Z,94816.66
2022-11-18T09:56:16.396Z,94820.19
2022-11-18T09:58:44.113Z,94825.53
2022-11-18T10:01:17.960Z,94832.69
2022-11-18T10:03:45.115Z,94833.19
2022-11-18T10:06:31.784Z,94845.88
2022-11-18T10:09:25.175Z,94845.53
2022-11-18T10:11:54.486Z,94845.22
2022-11-18T10:14:39.280Z,94841.50
2022-11-18T10:17:29.576Z,94836.97
2022-11-18T10:20:02.104Z,94842.81
2022-11-18T10:22:28.663Z,94833.13
2022-11-18T10:24:56.955Z,94826.91
2022-11-18T10:27:33.708Z,94828.75
2022-11-18T10:30:01.193Z,94828.75
2022-11-18T10:32:27.858Z,94835.97
2022-11-18T10:36:20.066Z,94830.63
2022-11-18T10:38:50.193Z,94829.78
2022-11-18T10:41:18.757Z,94827.28
2022-11-18T10:43:56.503Z,94835.31
2022-11-18T10:46:30.172Z,94831.97
2022-11-18T10:49:09.051Z,94839.19
2022-11-18T10:51:43.407Z,94839.19
2022-11-18T10:54:30.252Z,94832.16
2022-11-18T10:57:13.101Z,94840.19
2022-11-18T10:59:52.312Z,94838.50
2022-11-18T11:02:31.048Z,94839.53
2022-11-18T11:05:16.578Z,94836.19
2022-11-18T11:07:43.313Z,94834.50
2022-11-18T11:10:13.226Z,94832.00
2022-11-18T11:12:55.353Z,94832.19
2022-11-18T11:15:27.213Z,94826.31
2022-11-18T11:18:21.969Z,94832.50
2022-11-18T11:20:51.817Z,94829.00
2022-11-18T11:23:23.425Z,94828.34
2022-11-18T11:29:12.592Z,94837.38
2022-11-18T11:31:39.078Z,94828.50
2022-11-18T11:34:15.623Z,94834.91
2022-11-18T11:37:12.674Z,94840.25
2022-11-18T11:39:57.135Z,94830.53
2022-11-18T11:42:41.727Z,94836.91
2022-11-18T11:45:18.921Z,94844.09
2022-11-18T11:47:57.784Z,94840.59
2022-11-18T11:50:33.324Z,94841.41
2022-11-18T11:53:17.194Z,94842.59
2022-11-18T11:55:59.667Z,94844.44
2022-11-18T11:58:46.070Z,94850.81
2022-11-18T12:01:20.231Z,94855.34
2022-11-18T12:03:52.379Z,94850.97
2022-11-18T12:06:19.545Z,94858.16
2022-11-18T12:08:53.235Z,94862.69
2022-11-18T12:11:50.702Z,94866.38
2022-11-18T12:14:39.699Z,94872.91
2022-11-18T12:17:24.617Z,94860.53
2022-11-18T12:19:51.257Z,94865.91
2022-11-18T12:22:18.506Z,94866.91
2022-11-18T12:24:45.079Z,94876.78
2022-11-18T12:27:37.523Z,94871.59
2022-11-18T12:30:04.823Z,94878.78
2022-11-18T12:32:32.517Z,94880.78
2022-11-18T12:35:11.217Z,94879.75
2022-11-18T12:37:44.020Z,94878.09
2022-11-18T12:40:31.358Z,94881.94
2022-11-18T12:43:16.596Z,94899.69
2022-11-18T12:45:43.433Z,94894.31
2022-11-18T12:48:31.513Z,94893.31
2022-11-18T12:51:31.655Z,94897.84
2022-11-18T12:53:58.333Z,94891.00
2022-11-18T12:56:28.408Z,94900.16
2022-11-18T12:59:00.588Z,94890.81
2022-11-18T13:01:30.594Z,94890.81
2022-11-18T13:04:08.268Z,94901.53
2022-11-18T13:06:36.356Z,94890.34
2022-11-18T13:09:05.377Z,94897.19
2022-11-18T13:11:45.443Z,94900.03
2022-11-18T13:15:08.074Z,94906.25
2022-11-18T13:17:58.805Z,94901.34
2022-11-18T13:20:33.395Z,94902.16
2022-11-18T13:23:20.638Z,94904.28
2022-11-18T13:25:49.240Z,94908.78
2022-11-18T13:28:28.430Z,94909.13
2022-11-18T13:31:01.695Z,94919.63
2022-11-18T13:33:29.678Z,94925.63
2022-11-18T13:35:56.281Z,94931.66
2022-11-18T13:38:28.463Z,94932.34
2022-11-18T13:41:12.445Z,94944.56
2022-11-18T13:43:39.423Z,94948.91
2022-11-18T13:46:19.076Z,94948.44
2022-11-18T13:48:53.786Z,94957.28
2022-11-18T13:51:21.586Z,94961.44
2022-11-18T13:53:48.186Z,94957.78
2022-11-18T13:56:21.396Z,94962.28
2022-11-18T14:01:37.921Z,94959.25
2022-11-18T14:04:07.569Z,94945.81
2022-11-18T14:06:36.992Z,94939.41
2022-11-18T14:09:16.490Z,94931.97
2022-11-18T14:11:45.672Z,94927.03
2022-11-18T14:14:28.329Z,94927.50
2022-11-18T14:17:04.019Z,94921.44
2022-11-18T14:19:31.959Z,94924.88
2022-11-18T14:22:10.039Z,94931.00
2022-11-18T14:24:39.665Z,94937.09
2022-11-18T14:27:34.162Z,94932.19
2022-11-18T14:30:00.769Z,94933.50
2022-11-18T14:32:27.334Z,94939.31
2022-11-18T14:35:01.041Z,94940.78
2022-11-18T14:37:27.899Z,94938.44
2022-11-18T14:39:56.505Z,94947.72
2022-11-18T14:42:24.720Z,94948.88
2022-11-18T14:44:51.512Z,94947.66
2022-11-18T14:47:32.065Z,94953.81
2022-11-18T14:49:59.180Z,94952.44
2022-11-18T14:52:25.848Z,94956.25
2022-11-18T14:54:52.998Z,94960.22
2022-11-18T14:57:19.609Z,94951.69
2022-11-18T14:59:46.384Z,94957.16
2022-11-18T15:02:15.144Z,94959.00
2022-11-18T15:04:42.802Z,94970.81
2022-11-18T15:07:15.071Z,94973.63
2022-11-18T15:09:44.243Z,94970.44
2022-11-18T15:12:10.941Z,94971.25
2022-11-18T15:14:37.591Z,94983.22
2022-11-18T15:17:05.014Z,94985.53
2022-11-18T15:19:32.201Z,94983.25
2022-11-18T15:21:59.904Z,94982.03
2022-11-18T15:24:26.784Z,94993.84
2022-11-18T15:26:54.611Z,95002.16
2022-11-18T15:29:23.589Z,95002.44
2022-11-18T15:31:50.641Z,94995.72
2022-11-18T15:34:20.047Z,95007.22
2022-11-18T15:36:47.130Z,95005.69
2022-11-18T15:39:14.053Z,95001.47
2022-11-18T15:41:41.620Z,95004.31
2022-11-18T15:44:10.366Z,95005.28
2022-11-18T15:46:38.152Z,95010.06
2022-11-18T15:49:05.148Z,95013.88
2022-11-18T15:51:33.886Z,95016.69
2022-11-18T15:54:00.526Z,95005.34
2022-11-18T15:56:29.623Z,95008.31
2022-11-18T15:59:00.103Z,95013.78
2022-11-18T16:01:29.225Z,95009.44
2022-11-18T16:03:56.279Z,95013.25
2022-11-18T16:06:23.981Z,95016.88
2022-11-18T16:08:55.892Z,95006.53
2022-11-18T16:11:44.801Z,95006.81
2022-11-18T16:14:13.405Z,95012.00
2022-11-18T16:16:41.255Z,95022.66
2022-11-18T16:19:09.941Z,95024.34
2022-11-18T16:21:38.829Z,95035.84
2022-11-18T16:24:07.915Z,95046.63
2022-11-18T16:26:37.045Z,95032.47
2022-11-18T16:29:05.246Z,95035.41
2022-11-18T16:31:40.747Z,95035.56
2022-11-18T16:34:18.341Z,95047.22
2022-11-18T16:36:53.130Z,95043.84
2022-11-18T16:39:24.026Z,95049.19
2022-11-18T16:41:51.731Z,95052.00
2022-11-18T16:44:18.566Z,95053.81
2022-11-18T16:46:52.113Z,95053.81
2022-11-18T16:49:21.138Z,95059.16
2022-11-18T16:51:50.059Z,95052.44
2022-11-18T16:54:21.283Z,95060.28
2022-11-18T16:56:47.973Z,95054.97
2022-11-18T16:59:22.742Z,95057.91
2022-11-18T17:01:53.639Z,95063.09
2022-11-18T17:04:21.078Z,95064.88
2022-11-18T17:06:48.424Z,95068.56
2022-11-18T17:09:18.587Z,95075.53
2022-11-18T17:11:46.185Z,95073.88
2022-11-18T17:14:13.370Z,95078.38
2022-11-18T17:16:40.049Z,95083.13
2022-11-18T17:19:11.674Z,95078.19
2022-11-18T17:21:38.850Z,95086.75
2022-11-18T17:24:06.193Z,95080.59
2022-11-18T17:26:32.782Z,95084.53
2022-11-18T17:29:00.061Z,95086.19
2022-11-18T17:31:26.718Z,95102.91
2022-11-18T17:33:54.528Z,95094.03
2022-11-18T17:36:23.122Z,95101.06
2022-11-18T17:38:51.357Z,95096.72
2022-11-18T17:41:38.300Z,95100.22
2022-11-18T17:44:06.649Z,95110.03
2022-11-18T17:46:37.978Z,95107.66
2022-11-18T17:49:14.114Z,95122.50
2022-11-18T17:51:41.458Z,95123.47
2022-11-18T17:54:08.966Z,95120.81
2022-11-18T17:56:35.680Z,95122.63
2022-11-18T17:59:02.345Z,95119.16
2022-11-18T18:01:29.284Z,95122.78
2022-11-18T18:03:55.910Z,95127.28
2022-11-18T18:06:23.308Z,95131.91
2022-11-18T18:08:49.896Z,95132.59
2022-11-18T18:11:19.006Z,95143.25
2022-11-18T18:14:04.573Z,95138.94
2022-11-18T18:16:33.369Z,95138.06
2022-11-18T18:19:01.867Z,95141.72
2022-11-18T18:21:28.945Z,95143.38
2022-11-18T18:23:55.920Z,95138.50
2022-11-18T18:26:26.749Z,95149.16
2022-11-18T18:28:59.872Z,95150.69
2022-11-18T18:31:26.792Z,95144.66
2022-11-18T18:33:53.543Z,95153.50
2022-11-18T18:36:20.874Z,95149.16
2022-11-18T18:38:47.789Z,95149.28
2022-11-18T18:41:22.257Z,95149.28
2022-11-18T18:43:49.637Z,95152.78
2022-11-18T18:46:31.323Z,95149.28
2022-11-18T18:48:59.261Z,95155.44
2022-11-18T18:51:27.661Z,95158.09
2022-11-18T18:53:58.359Z,95155.59
2022-11-18T18:56:25.680Z,95162.72
2022-11-18T18:58:53.738Z,95157.41
2022-11-18T19:01:20.725Z,95163.72
2022-11-18T19:03:47.857Z,95160.22
2022-11-18T19:06:53.195Z,95160.38
2022-11-18T19:09:13.562Z,95157.97
2022-11-18T19:11:59.018Z,95159.94
2022-11-18T19:14:26.198Z,95162.91
2022-11-18T19:16:53.136Z,95153.50
2022-11-18T19:19:42.953Z,95150.28
2022-11-18T19:22:10.941Z,95159.09
2022-11-18T19:24:49.230Z,95150.53
2022-11-18T19:27:16.620Z,95170.88
2022-11-18T19:29:43.257Z,95168.34
2022-11-18T19:32:09.915Z,95163.03
2022-11-18T19:34:36.487Z,95166.66
2022-11-18T19:37:03.763Z,95160.78
2022-11-18T19:39:30.594Z,95168.59
2022-11-18T19:41:57.181Z,95170.69
2022-11-18T19:44:23.846Z,95168.91
2022-11-18T19:46:50.705Z,95172.53
2022-11-18T19:49:17.606Z,95175.31
2022-11-18T19:51:44.365Z,95167.34
2022-11-18T19:54:10.964Z,95169.16
2022-11-18T19:56:37.677Z,95168.34
2022-11-18T19:59:04.208Z,95170.16
2022-11-18T20:01:31.396Z,95169.47
2022-11-18T20:03:59.788Z,95175.50
2022-11-18T20:06:27.366Z,95175.50
2022-11-18T20:08:55.684Z,95169.31
2022-11-18T20:11:22.340Z,95178.97
2022-11-18T20:13:49.067Z,95188.78
2022-11-18T20:16:20.921Z,95187.94
2022-11-18T20:18:52.202Z,95188.78
2022-11-18T20:21:22.390Z,95189.75
2022-11-18T20:24:02.941Z,95182.78
2022-11-18T20:26:34.816Z,95188.09
2022-11-18T20:29:01.925Z,95188.94
2022-11-18T20:31:29.164Z,95191.72
2022-11-18T20:33:56.523Z,95184.56
2022-11-18T20:36:25.254Z,95183.72
2022-11-18T20:38:53.712Z,95178.69
2022-11-18T20:41:21.066Z,95174.59
2022-11-18T20:43:48.303Z,95184.84
2022-11-18T20:46:20.404Z,95185.81
2022-11-18T20:48:48.397Z,95191.00
2022-11-18T20:51:17.133Z,95184.00
2022-11-18T20:53:44.226Z,95184.84
2022-11-18T20:56:16.184Z,95186.66
2022-11-18T20:58:44.040Z,95198.28
2022-11-18T21:01:21.972Z,95189.63
2022-11-18T21:03:52.654Z,95199.41
